Overview Statistics Trail Chart Weather Telemetry Raw packets
 

This is the latest recevied weather packets stored in our database for station/object SR3WXA. If no packets are shown the sender has not sent any weather packets the latest 10 day(s).

<< 47 48 49 50 51 52 53 >>
Time Temp. Humidity Pressure Rain* Wind** Luminosity Snow
1788517017 21.67° C 72% 1009.8 hPa 0 mm - 169 W/m² -
1788516897 21.67° C 72% 1009.8 hPa 0 mm - 169 W/m² -
1788516665 21.11° C 73% 1009.8 hPa 0 mm - 283 W/m² -
1788516597 21.11° C 73% 1009.8 hPa 0 mm - 283 W/m² -
1788516109 21.11° C 74% 1009.9 hPa 0 mm - 485 W/m² -
1788515541 20.56° C 76% 1010.4 hPa 0 mm - 243 W/m² -
1788515508 20.56° C 76% 1010.4 hPa 0 mm - 243 W/m² -
1788515208 20.56° C 77% 1010.4 hPa 0 mm - 260 W/m² -
1788514999 20.56° C 77% 1010.5 hPa 0 mm - 230 W/m² -
1788514908 20.56° C 77% 1010.5 hPa 0 mm - 230 W/m² -
1788514737 20.56° C 78% 1010.6 hPa 0 mm - 257 W/m² -
1788514608 20.56° C 78% 1010.6 hPa 0 mm - 257 W/m² -
1788514390 20.56° C 78% 1010.7 hPa 0 mm - 199 W/m² -
1788514309 20.56° C 78% 1010.7 hPa 0 mm - 199 W/m² -
1788513628 20° C 80% 1010.9 hPa 0 mm - 137 W/m² -
1788513408 20° C 80% 1011 hPa 0 mm - 183 W/m² -
1788513347 20° C 80% 1011 hPa 0 mm - 183 W/m² -
1788512854 20° C 80% 1011.2 hPa 0 mm - 142 W/m² -
1788512726 20° C 80% 1011.2 hPa 0 mm - 142 W/m² -
1788512234 20° C 80% 1011.5 hPa 0 mm - 100 W/m² -
1788512126 20° C 80% 1011.5 hPa 0 mm - 100 W/m² -
1788511632 20° C 81% 1011.2 hPa 0 mm - 134 W/m² -
1788511526 20° C 81% 1011.2 hPa 0 mm - 134 W/m² -
1788510964 20° C 81% 1011.3 hPa 0 mm - 227 W/m² -
1788510911 20° C 81% 1011.3 hPa 0 mm - 227 W/m² -

* Rain latest hour (hover to see other rain measurements)
** Current wind speed in m/s (hover to see current wind gust speed)